createdAt,value
2023-05-10T00:02:25.703Z,97348.63
2023-05-10T00:04:53.743Z,97347.34
2023-05-10T00:07:23.144Z,97356.97
2023-05-10T00:09:51.110Z,97350.25
2023-05-10T00:12:19.309Z,97349.94
2023-05-10T00:14:47.616Z,97344.81
2023-05-10T00:17:17.196Z,97361.38
2023-05-10T00:19:45.166Z,97356.47
2023-05-10T00:22:13.295Z,97355.25
2023-05-10T00:24:41.200Z,97351.44
2023-05-10T00:27:09.573Z,97370.28
2023-05-10T00:29:37.513Z,97362.16
2023-05-10T00:32:06.142Z,97363.91
2023-05-10T00:34:35.432Z,97370.56
2023-05-10T00:37:03.781Z,97376.03
2023-05-10T00:39:31.834Z,97372.91
2023-05-10T00:42:00.726Z,97373.84
2023-05-10T00:44:28.604Z,97379.38
2023-05-10T00:46:56.742Z,97373.25
2023-05-10T00:49:24.938Z,97385.22
2023-05-10T00:51:54.401Z,97374.50
2023-05-10T00:54:22.758Z,97374.81
2023-05-10T00:56:50.730Z,97377.56
2023-05-10T00:59:19.798Z,97386.50
2023-05-10T01:01:48.252Z,97390.56
2023-05-10T01:04:17.328Z,97380.31
2023-05-10T01:06:45.601Z,97397.13
2023-05-10T01:09:15.227Z,97387.91
2023-05-10T01:11:43.400Z,97395.00
2023-05-10T01:14:12.008Z,97399.38
2023-05-10T01:16:41.629Z,97399.13
2023-05-10T01:19:15.007Z,97398.09
2023-05-10T01:21:51.854Z,97394.06
2023-05-10T01:25:07.414Z,97393.53
2023-05-10T01:28:04.558Z,97395.75
2023-05-10T01:30:59.497Z,97401.16
2023-05-10T01:33:32.646Z,97399.03
2023-05-10T01:36:07.689Z,97396.81
2023-05-10T01:38:44.298Z,97404.69
2023-05-10T01:41:20.179Z,97404.16
2023-05-10T01:43:56.648Z,97407.72
2023-05-10T01:46:31.119Z,97415.78
2023-05-10T01:49:02.820Z,97410.66
2023-05-10T01:51:38.646Z,97423.59
2023-05-10T01:54:08.435Z,97420.09
2023-05-10T01:56:39.841Z,97421.44
2023-05-10T01:59:13.652Z,97422.22
2023-05-10T02:01:42.863Z,97426.06
2023-05-10T02:04:15.118Z,97422.56
2023-05-10T02:06:44.652Z,97424.50
2023-05-10T02:09:14.008Z,97430.16
2023-05-10T02:11:45.227Z,97436.88
2023-05-10T02:14:14.703Z,97437.22
2023-05-10T02:16:43.462Z,97430.94
2023-05-10T02:19:16.091Z,97435.56
2023-05-10T02:21:44.984Z,97425.03
2023-05-10T02:24:13.994Z,97435.59
2023-05-10T02:26:44.200Z,97433.16
2023-05-10T02:29:13.438Z,97442.84
2023-05-10T02:31:44.526Z,97443.94
2023-05-10T02:34:15.072Z,97444.78
2023-05-10T02:36:45.098Z,97452.34
2023-05-10T02:39:15.435Z,97448.53
2023-05-10T02:41:45.738Z,97447.19
2023-05-10T02:44:16.566Z,97449.63
2023-05-10T02:46:44.703Z,97456.13
2023-05-10T02:49:14.439Z,97449.91
2023-05-10T02:51:46.353Z,97451.50
2023-05-10T02:54:20.570Z,97450.13
2023-05-10T02:56:52.835Z,97459.84
2023-05-10T02:59:20.974Z,97457.44
2023-05-10T03:01:49.055Z,97459.03
2023-05-10T03:04:18.599Z,97463.13
2023-05-10T03:06:47.232Z,97460.66
2023-05-10T03:09:16.675Z,97471.16
2023-05-10T03:11:56.741Z,97461.13
2023-05-10T03:14:37.224Z,97461.94
2023-05-10T03:17:12.438Z,97454.41
2023-05-10T03:19:49.316Z,97460.84
2023-05-10T03:22:25.706Z,97469.50
2023-05-10T03:24:58.060Z,97469.69
2023-05-10T03:27:28.558Z,97468.41
2023-05-10T03:29:57.998Z,97474.06
2023-05-10T03:32:26.398Z,97467.84
2023-05-10T03:34:56.103Z,97475.34
2023-05-10T03:37:24.160Z,97479.13
2023-05-10T03:39:52.562Z,97472.59
2023-05-10T03:42:20.693Z,97475.63
2023-05-10T03:44:50.480Z,97482.94
2023-05-10T03:47:18.546Z,97477.81
2023-05-10T03:49:46.723Z,97478.63
2023-05-10T03:52:16.569Z,97475.94
2023-05-10T03:54:44.551Z,97474.34
2023-05-10T03:57:12.930Z,97483.75
2023-05-10T03:59:41.072Z,97481.03
2023-05-10T04:02:09.222Z,97479.69
2023-05-10T04:04:37.335Z,97473.75
2023-05-10T04:07:05.416Z,97481.34
2023-05-10T04:09:34.750Z,97484.31
2023-05-10T04:12:03.541Z,97483.78
2023-05-10T04:14:31.520Z,97480.78
2023-05-10T04:16:59.632Z,97479.75
2023-05-10T04:19:32.001Z,97479.47
2023-05-10T04:22:00.996Z,97481.84
2023-05-10T04:24:28.918Z,97476.47
2023-05-10T04:26:58.405Z,97483.50
2023-05-10T04:29:26.394Z,97485.91
2023-05-10T04:31:54.558Z,97489.44
2023-05-10T04:34:22.788Z,97489.66
2023-05-10T04:36:50.678Z,97491.28
2023-05-10T04:39:19.063Z,97492.91
2023-05-10T04:41:47.243Z,97494.00
2023-05-10T04:44:16.771Z,97491.00
2023-05-10T04:46:47.210Z,97495.31
2023-05-10T04:49:15.485Z,97494.56
2023-05-10T04:51:43.386Z,97498.06
2023-05-10T04:54:11.681Z,97507.28
2023-05-10T04:56:39.583Z,97504.56
2023-05-10T04:59:07.736Z,97497.31
2023-05-10T05:01:37.164Z,97501.94
2023-05-10T05:04:05.934Z,97508.69
2023-05-10T05:06:33.924Z,97510.59
2023-05-10T05:09:01.784Z,97520.53
2023-05-10T05:11:29.859Z,97518.13
2023-05-10T05:14:00.149Z,97517.84
2023-05-10T05:16:28.489Z,97522.13
2023-05-10T05:18:57.896Z,97521.03
2023-05-10T05:21:28.107Z,97524.00
2023-05-10T05:23:56.108Z,97530.97
2023-05-10T05:26:24.025Z,97532.03
2023-05-10T05:28:54.940Z,97530.38
2023-05-10T05:31:23.385Z,97528.72
2023-05-10T05:33:51.636Z,97530.84
2023-05-10T05:36:21.301Z,97540.75
2023-05-10T05:38:49.242Z,97540.25
2023-05-10T05:41:17.126Z,97536.91
2023-05-10T05:43:45.222Z,97548.06
2023-05-10T05:46:13.307Z,97540.97
2023-05-10T05:48:41.256Z,97542.06
2023-05-10T05:51:09.251Z,97543.75
2023-05-10T05:53:38.536Z,97547.16
2023-05-10T05:56:07.238Z,97548.59
2023-05-10T05:58:35.473Z,97549.47
2023-05-10T06:01:03.688Z,97550.00
2023-05-10T06:03:31.611Z,97551.28
2023-05-10T06:05:59.517Z,97544.78
2023-05-10T06:08:27.516Z,97550.66
2023-05-10T06:10:59.723Z,97551.72
2023-05-10T06:13:30.045Z,97551.81
2023-05-10T06:15:58.226Z,97550.72
2023-05-10T06:18:26.679Z,97565.53
2023-05-10T06:20:54.606Z,97567.97
2023-05-10T06:23:24.122Z,97568.25
2023-05-10T06:25:52.079Z,97574.22
2023-05-10T06:28:21.672Z,97574.22
2023-05-10T06:30:49.740Z,97573.75
2023-05-10T06:33:18.576Z,97574.03
2023-05-10T06:35:46.825Z,97571.28
2023-05-10T06:38:14.752Z,97570.72
2023-05-10T06:40:44.085Z,97576.41
2023-05-10T06:43:12.903Z,97574.22
2023-05-10T06:45:42.484Z,97577.19
2023-05-10T06:48:10.844Z,97575.22
2023-05-10T06:50:38.835Z,97580.94
2023-05-10T06:53:06.735Z,97574.09
2023-05-10T06:55:34.675Z,97577.13
2023-05-10T06:58:03.118Z,97577.13
2023-05-10T07:00:31.126Z,97580.03
2023-05-10T07:03:00.500Z,97585.97
2023-05-10T07:05:30.767Z,97583.03
2023-05-10T07:07:58.731Z,97583.53
2023-05-10T07:10:26.653Z,97580.97
2023-05-10T07:12:54.937Z,97572.78
2023-05-10T07:15:23.149Z,97577.03
2023-05-10T07:17:51.291Z,97579.47
2023-05-10T07:20:21.222Z,97578.31
2023-05-10T07:22:49.223Z,97582.78
2023-05-10T07:25:17.689Z,97575.47
2023-05-10T07:27:46.002Z,97586.75
2023-05-10T07:30:15.183Z,97590.34
2023-05-10T07:32:43.819Z,97578.69
2023-05-10T07:35:11.901Z,97583.00
2023-05-10T07:37:41.263Z,97593.28
2023-05-10T07:40:39.794Z,97597.09
2023-05-10T07:43:08.309Z,97597.47
2023-05-10T07:45:36.602Z,97580.97
2023-05-10T07:48:04.891Z,97595.84
2023-05-10T07:50:33.008Z,97587.78
2023-05-10T07:53:02.341Z,97587.19
2023-05-10T07:55:30.239Z,97592.53
2023-05-10T07:57:58.488Z,97595.84
2023-05-10T08:00:26.805Z,97600.50
2023-05-10T08:02:55.276Z,97597.38
2023-05-10T08:05:23.507Z,97596.13
2023-05-10T08:07:51.563Z,97599.66
2023-05-10T08:10:21.109Z,97596.75
2023-05-10T08:12:49.238Z,97602.00
2023-05-10T08:15:17.409Z,97611.50
2023-05-10T08:17:45.712Z,97608.97
2023-05-10T08:20:17.861Z,97610.59
2023-05-10T08:22:46.902Z,97609.88
2023-05-10T08:25:15.216Z,97613.63
2023-05-10T08:27:44.964Z,97621.03
2023-05-10T08:30:14.010Z,97619.34
2023-05-10T08:32:41.998Z,97614.06
2023-05-10T08:35:10.151Z,97622.44
2023-05-10T08:37:38.149Z,97620.22
2023-05-10T08:40:07.098Z,97624.56
2023-05-10T08:42:38.980Z,97623.75
2023-05-10T08:45:10.098Z,97614.41
2023-05-10T08:47:39.368Z,97625.13
2023-05-10T08:50:09.744Z,97614.81
2023-05-10T08:52:41.174Z,97625.69
2023-05-10T08:55:10.258Z,97628.63
2023-05-10T08:57:38.696Z,97629.69
2023-05-10T09:00:10.806Z,97620.66
2023-05-10T09:02:39.659Z,97630.41
2023-05-10T09:05:09.021Z,97639.53
2023-05-10T09:07:37.263Z,97637.34
2023-05-10T09:10:07.422Z,97645.56
2023-05-10T09:12:36.004Z,97639.06
2023-05-10T09:15:04.631Z,97637.91
2023-05-10T09:17:34.257Z,97647.28
2023-05-10T09:20:03.710Z,97638.78
2023-05-10T09:22:32.164Z,97642.53
2023-05-10T09:25:08.548Z,97651.19
2023-05-10T09:27:37.150Z,97656.69
2023-05-10T09:30:06.315Z,97653.16
2023-05-10T09:32:43.407Z,97650.44
2023-05-10T09:35:13.325Z,97653.91
2023-05-10T09:37:43.930Z,97662.72
2023-05-10T09:40:16.371Z,97660.59
2023-05-10T09:42:53.103Z,97660.75
2023-05-10T09:45:21.262Z,97660.94
2023-05-10T09:47:50.864Z,97665.78
2023-05-10T09:52:52.882Z,97667.41
2023-05-10T09:55:24.515Z,97668.22
2023-05-10T09:58:02.078Z,97660.56
2023-05-10T10:00:30.905Z,97670.53
2023-05-10T10:03:01.542Z,97673.13
2023-05-10T10:05:33.346Z,97664.69
2023-05-10T10:08:02.839Z,97663.69
2023-05-10T10:10:31.495Z,97659.03
2023-05-10T10:12:59.628Z,97664.22
2023-05-10T10:15:28.425Z,97660.91
2023-05-10T10:17:56.882Z,97660.81
2023-05-10T10:20:26.709Z,97657.03
2023-05-10T10:22:55.614Z,97658.53
2023-05-10T10:25:24.573Z,97651.19
2023-05-10T10:28:06.893Z,97647.38
2023-05-10T10:30:43.789Z,97655.31
2023-05-10T10:33:50.063Z,97650.56
2023-05-10T10:36:19.758Z,97647.94
2023-05-10T10:39:05.210Z,97660.81
2023-05-10T10:41:35.528Z,97658.00
2023-05-10T10:44:35.419Z,97661.31
2023-05-10T10:47:07.026Z,97661.22
2023-05-10T10:49:39.414Z,97655.53
2023-05-10T10:52:24.836Z,97666.00
2023-05-10T10:54:54.586Z,97668.88
2023-05-10T10:57:23.812Z,97659.19
2023-05-10T10:59:52.318Z,97664.84
2023-05-10T11:02:49.921Z,97668.00
2023-05-10T11:05:48.174Z,97666.09
2023-05-10T11:08:28.224Z,97669.91
2023-05-10T11:11:07.947Z,97668.91
2023-05-10T11:13:39.892Z,97660.38
2023-05-10T11:16:19.754Z,97664.94
2023-05-10T11:18:56.435Z,97670.66
2023-05-10T11:21:24.848Z,97665.34
2023-05-10T11:23:57.756Z,97666.25
2023-05-10T11:26:27.246Z,97676.53
2023-05-10T11:29:00.240Z,97666.25
2023-05-10T11:31:29.062Z,97674.09
2023-05-10T11:33:58.781Z,97680.28
2023-05-10T11:36:30.436Z,97668.22
2023-05-10T11:39:00.052Z,97679.69
2023-05-10T11:41:31.102Z,97685.78
2023-05-10T11:44:00.464Z,97690.63
2023-05-10T11:46:30.530Z,97690.25
2023-05-10T11:49:05.180Z,97699.66
2023-05-10T11:51:36.746Z,97695.91
2023-05-10T11:54:09.260Z,97699.06
2023-05-10T11:56:38.599Z,97691.41
2023-05-10T11:59:06.823Z,97695.25
2023-05-10T12:01:35.456Z,97693.25
2023-05-10T12:04:04.234Z,97699.19
2023-05-10T12:06:33.688Z,97696.38
2023-05-10T12:09:07.847Z,97701.50
2023-05-10T12:11:43.493Z,97697.31
2023-05-10T12:14:12.380Z,97693.72
2023-05-10T12:16:40.920Z,97697.66
2023-05-10T12:19:09.313Z,97694.22
2023-05-10T12:21:39.814Z,97692.81
2023-05-10T12:24:08.685Z,97702.66
2023-05-10T12:26:38.788Z,97703.19
2023-05-10T12:29:17.976Z,97707.22
2023-05-10T12:31:54.307Z,97708.03
2023-05-10T12:34:27.052Z,97710.16
2023-05-10T12:36:55.567Z,97710.16
2023-05-10T12:39:24.163Z,97713.59
2023-05-10T12:41:53.809Z,97721.94
2023-05-10T12:44:21.821Z,97715.41
2023-05-10T12:46:50.010Z,97726.28
2023-05-10T12:49:20.116Z,97729.00
2023-05-10T12:51:48.005Z,97723.88
2023-05-10T12:54:16.363Z,97722.69
2023-05-10T12:56:44.491Z,97731.44
2023-05-10T12:59:13.930Z,97737.84
2023-05-10T13:01:42.522Z,97739.25
2023-05-10T13:04:10.612Z,97732.41
2023-05-10T13:06:39.040Z,97738.13
2023-05-10T13:09:07.294Z,97729.91
2023-05-10T13:11:35.469Z,97741.66
2023-05-10T13:14:04.248Z,97735.28
2023-05-10T13:16:34.150Z,97733.00
2023-05-10T13:19:04.043Z,97728.38
2023-05-10T13:21:32.078Z,97725.47
2023-05-10T13:24:01.114Z,97731.91
2023-05-10T13:26:29.405Z,97735.06
2023-05-10T13:28:57.633Z,97720.97
2023-05-10T13:31:25.967Z,97725.00
2023-05-10T13:33:55.416Z,97721.59
2023-05-10T13:36:24.245Z,97723.53
2023-05-10T13:38:52.622Z,97720.44
2023-05-10T13:41:20.631Z,97713.75
2023-05-10T13:43:49.970Z,97720.38
2023-05-10T13:46:18.066Z,97713.88
2023-05-10T13:48:46.247Z,97717.88
2023-05-10T13:51:16.049Z,97710.38
2023-05-10T13:53:43.999Z,97706.72
2023-05-10T13:56:11.998Z,97712.94
2023-05-10T13:58:40.159Z,97710.88
2023-05-10T14:01:08.740Z,97711.94
2023-05-10T14:03:37.175Z,97709.06
2023-05-10T14:06:05.666Z,97708.69
2023-05-10T14:08:35.256Z,97710.97
2023-05-10T14:11:03.541Z,97709.97
2023-05-10T14:13:31.553Z,97699.00
2023-05-10T14:16:01.558Z,97698.50
2023-05-10T14:18:29.994Z,97693.97
2023-05-10T14:20:58.123Z,97698.50
2023-05-10T14:23:26.810Z,97696.00
2023-05-10T14:25:56.486Z,97701.34
2023-05-10T14:28:25.722Z,97694.81
2023-05-10T14:30:53.703Z,97690.91
2023-05-10T14:33:22.131Z,97693.34
2023-05-10T14:35:50.337Z,97694.66
2023-05-10T14:38:18.575Z,97693.94
2023-05-10T14:40:46.837Z,97689.50
2023-05-10T14:43:16.808Z,97697.97
2023-05-10T14:45:46.203Z,97692.59
2023-05-10T14:48:16.559Z,97695.69
2023-05-10T14:50:44.597Z,97701.34
2023-05-10T14:53:13.062Z,97695.69
2023-05-10T14:55:41.053Z,97697.59
2023-05-10T14:58:09.323Z,97701.78
2023-05-10T15:00:38.805Z,97703.63
2023-05-10T15:03:07.422Z,97698.25
2023-05-10T15:05:38.488Z,97706.41
2023-05-10T15:08:06.953Z,97701.69
2023-05-10T15:10:35.342Z,97697.22
2023-05-10T15:13:03.915Z,97693.31
2023-05-10T15:15:32.313Z,97692.00
2023-05-10T15:18:01.956Z,97701.06
2023-05-10T15:20:30.515Z,97694.06
2023-05-10T15:22:59.049Z,97697.75
2023-05-10T15:25:27.256Z,97690.75
2023-05-10T15:27:55.335Z,97699.66
2023-05-10T15:30:23.498Z,97695.31
2023-05-10T15:32:51.959Z,97693.84
2023-05-10T15:35:21.721Z,97694.72
2023-05-10T15:37:50.540Z,97702.66
2023-05-10T15:40:18.638Z,97700.69
2023-05-10T15:42:46.899Z,97699.16
2023-05-10T15:45:16.421Z,97704.91
2023-05-10T15:47:45.286Z,97703.50
2023-05-10T15:50:16.497Z,97707.44
2023-05-10T15:52:46.467Z,97709.56
2023-05-10T15:55:14.926Z,97709.94
2023-05-10T15:57:43.728Z,97711.34
2023-05-10T16:00:13.644Z,97718.59
2023-05-10T16:02:42.132Z,97717.28
2023-05-10T16:05:11.390Z,97701.28
2023-05-10T16:07:40.343Z,97715.97
2023-05-10T16:10:12.451Z,97713.47
2023-05-10T16:12:40.912Z,97719.50
2023-05-10T16:15:11.885Z,97713.59
2023-05-10T16:17:39.909Z,97720.13
2023-05-10T16:20:09.338Z,97720.50
2023-05-10T16:22:37.528Z,97717.66
2023-05-10T16:25:06.249Z,97721.09
2023-05-10T16:27:35.815Z,97719.34
2023-05-10T16:30:22.345Z,97717.44
2023-05-10T16:32:59.563Z,97729.84
2023-05-10T16:35:29.864Z,97723.16
2023-05-10T16:37:58.761Z,97722.53
2023-05-10T16:40:26.989Z,97718.84
2023-05-10T16:42:56.333Z,97721.25
2023-05-10T16:45:24.480Z,97729.47
2023-05-10T16:47:53.653Z,97722.75
2023-05-10T16:50:21.918Z,97728.06
2023-05-10T16:52:49.821Z,97724.22
2023-05-10T16:55:18.058Z,97722.91
2023-05-10T16:57:46.160Z,97725.13
2023-05-10T17:00:17.287Z,97731.28
2023-05-10T17:02:45.367Z,97724.44
2023-05-10T17:05:14.777Z,97735.31
2023-05-10T17:07:43.145Z,97729.16
2023-05-10T17:10:12.441Z,97724.44
2023-05-10T17:12:41.211Z,97727.03
2023-05-10T17:15:11.728Z,97730.47
2023-05-10T17:17:43.269Z,97729.75
2023-05-10T17:20:12.186Z,97739.00
2023-05-10T17:22:40.481Z,97735.03
2023-05-10T17:25:09.559Z,97738.53
2023-05-10T17:27:37.536Z,97733.09
2023-05-10T17:30:06.502Z,97736.56
2023-05-10T17:32:34.490Z,97731.56
2023-05-10T17:35:05.234Z,97740.00
2023-05-10T17:37:34.669Z,97731.56
2023-05-10T17:40:03.988Z,97733.25
2023-05-10T17:42:32.616Z,97729.50
2023-05-10T17:45:00.931Z,97740.94
2023-05-10T17:47:28.847Z,97732.28
2023-05-10T17:49:56.777Z,97736.63
2023-05-10T17:52:26.251Z,97734.41
2023-05-10T17:54:54.611Z,97739.41
2023-05-10T17:57:23.819Z,97741.94
2023-05-10T17:59:51.709Z,97741.44
2023-05-10T18:02:19.995Z,97741.19
2023-05-10T18:04:49.426Z,97745.81
2023-05-10T18:07:17.833Z,97746.63
2023-05-10T18:09:47.373Z,97739.66
2023-05-10T18:12:15.531Z,97738.31
2023-05-10T18:14:44.595Z,97747.56
2023-05-10T18:17:12.983Z,97744.63
2023-05-10T18:19:41.631Z,97754.66
2023-05-10T18:22:10.808Z,97755.47
2023-05-10T18:24:40.274Z,97751.19
2023-05-10T18:27:10.547Z,97749.94
2023-05-10T18:29:38.538Z,97757.25
2023-05-10T18:32:08.288Z,97755.34
2023-05-10T18:34:38.661Z,97755.63
2023-05-10T18:37:09.571Z,97754.31
2023-05-10T18:39:38.498Z,97762.44
2023-05-10T18:42:07.409Z,97758.69
2023-05-10T18:44:37.399Z,97757.66
2023-05-10T18:47:05.726Z,97770.16
2023-05-10T18:49:33.970Z,97768.59
2023-05-10T18:52:04.917Z,97768.38
2023-05-10T18:54:32.987Z,97767.59
2023-05-10T18:57:01.169Z,97768.22
2023-05-10T18:59:29.406Z,97765.59
2023-05-10T19:01:58.990Z,97774.06
2023-05-10T19:04:27.096Z,97782.19
2023-05-10T19:06:55.990Z,97771.13
2023-05-10T19:09:24.863Z,97773.28
2023-05-10T19:11:53.432Z,97780.94
2023-05-10T19:14:21.825Z,97786.41
2023-05-10T19:16:51.089Z,97785.34
2023-05-10T19:19:21.423Z,97789.47
2023-05-10T19:21:49.763Z,97786.53
2023-05-10T19:24:19.689Z,97789.56
2023-05-10T19:26:48.687Z,97785.53
2023-05-10T19:29:17.164Z,97796.88
2023-05-10T19:31:45.522Z,97786.84
2023-05-10T19:34:15.952Z,97789.56
2023-05-10T19:36:48.494Z,97799.59
2023-05-10T19:39:16.482Z,97803.41
2023-05-10T19:41:44.667Z,97797.19
2023-05-10T19:44:13.135Z,97795.28
2023-05-10T19:46:41.355Z,97795.38
2023-05-10T19:49:11.045Z,97800.81
2023-05-10T19:51:39.116Z,97799.72
2023-05-10T19:54:08.953Z,97800.56
2023-05-10T19:56:37.354Z,97799.22
2023-05-10T19:59:06.774Z,97792.25
2023-05-10T20:01:35.816Z,97797.41
2023-05-10T20:04:04.672Z,97799.06
2023-05-10T20:06:37.406Z,97797.47
2023-05-10T20:09:06.204Z,97792.88
2023-05-10T20:11:36.794Z,97797.75
2023-05-10T20:14:05.318Z,97799.41
2023-05-10T20:16:35.956Z,97798.84
2023-05-10T20:19:04.737Z,97799.66
2023-05-10T20:21:34.221Z,97806.69
2023-05-10T20:24:02.279Z,97809.69
2023-05-10T20:26:31.742Z,97806.44
2023-05-10T20:29:03.052Z,97802.94
2023-05-10T20:31:33.321Z,97804.00
2023-05-10T20:34:01.816Z,97794.81
2023-05-10T20:36:30.290Z,97796.44
2023-05-10T20:38:59.328Z,97799.97
2023-05-10T20:41:27.951Z,97799.16
2023-05-10T20:43:56.025Z,97798.91
2023-05-10T20:46:27.126Z,97803.50
2023-05-10T20:48:56.737Z,97798.09
2023-05-10T20:51:25.021Z,97798.09
2023-05-10T20:53:54.357Z,97799.47
2023-05-10T20:56:22.362Z,97800.28
2023-05-10T20:58:50.333Z,97798.13
2023-05-10T21:01:18.348Z,97793.53
2023-05-10T21:03:48.096Z,97787.03
2023-05-10T21:06:16.060Z,97791.34
2023-05-10T21:08:48.173Z,97789.19
2023-05-10T21:11:16.508Z,97797.31
2023-05-10T21:13:44.767Z,97791.09
2023-05-10T21:16:12.855Z,97792.16
2023-05-10T21:18:40.937Z,97790.00
2023-05-10T21:21:10.908Z,97797.03
2023-05-10T21:23:39.108Z,97799.19
2023-05-10T21:26:07.279Z,97796.19
2023-05-10T21:28:36.950Z,97805.94
2023-05-10T21:31:06.736Z,97797.00
2023-05-10T21:33:36.238Z,97800.53
2023-05-10T21:36:04.491Z,97796.19
2023-05-10T21:38:34.447Z,97791.59
2023-05-10T21:41:02.943Z,97789.97
2023-05-10T21:43:31.578Z,97791.06
2023-05-10T21:45:59.842Z,97798.09
2023-05-10T21:48:27.848Z,97805.13
2023-05-10T21:50:55.878Z,97810.53
2023-05-10T21:53:24.141Z,97800.00
2023-05-10T21:55:55.536Z,97801.91
2023-05-10T21:58:23.880Z,97798.94
2023-05-10T22:00:52.630Z,97802.47
2023-05-10T22:03:21.193Z,97800.03
2023-05-10T22:05:49.886Z,97800.84
2023-05-10T22:08:17.958Z,97797.88
2023-05-10T22:10:46.005Z,97802.22
2023-05-10T22:13:15.432Z,97795.19
2023-05-10T22:15:44.162Z,97800.06
2023-05-10T22:18:12.427Z,97797.88
2023-05-10T22:20:40.460Z,97799.50
2023-05-10T22:23:08.701Z,97803.56
2023-05-10T22:25:36.572Z,97799.78
2023-05-10T22:28:04.519Z,97800.03
2023-05-10T22:30:33.979Z,97803.28
2023-05-10T22:33:02.344Z,97803.81
2023-05-10T22:35:30.422Z,97797.59
2023-05-10T22:37:58.345Z,97802.19
2023-05-10T22:40:26.472Z,97802.19
2023-05-10T22:42:54.888Z,97804.09
2023-05-10T22:45:23.251Z,97795.44
2023-05-10T22:47:53.009Z,97806.53
2023-05-10T22:50:22.326Z,97803.81
2023-05-10T22:52:50.450Z,97797.88
2023-05-10T22:55:18.815Z,97795.44
2023-05-10T22:57:46.765Z,97806.00
2023-05-10T23:00:16.158Z,97801.69
2023-05-10T23:02:44.678Z,97807.09
2023-05-10T23:05:14.776Z,97802.53
2023-05-10T23:07:43.114Z,97798.47
2023-05-10T23:10:11.846Z,97813.88
2023-05-10T23:12:39.874Z,97806.84
2023-05-10T23:15:08.983Z,97812.81
2023-05-10T23:17:37.197Z,97798.75
2023-05-10T23:20:05.791Z,97803.59
2023-05-10T23:22:35.279Z,97815.75
2023-05-10T23:25:03.190Z,97814.13
2023-05-10T23:27:31.441Z,97814.94
2023-05-10T23:29:59.740Z,97816.03
2023-05-10T23:32:27.848Z,97808.72
2023-05-10T23:34:55.908Z,97811.41
2023-05-10T23:37:23.918Z,97812.53
2023-05-10T23:39:54.102Z,97807.13
2023-05-10T23:42:22.064Z,97801.19
2023-05-10T23:44:50.040Z,97808.47
2023-05-10T23:47:18.102Z,97805.78
2023-05-10T23:49:50.657Z,97799.28
2023-05-10T23:52:19.261Z,97807.94
2023-05-10T23:54:47.613Z,97799.28
2023-05-10T23:57:17.240Z,97805.78
2023-05-10T23:59:45.636Z,97797.94
